Time;durP1;ratioP1;P1;durP2;ratioP2;P2;SDS_P1;SDS_P2;PMS_P1;PMS_P2;Temp;Humidity;BMP_temperature;BMP_pressure;BME280_temperature;BME280_humidity;BME280_pressure;Samples;Min_cycle;Max_cycle;Signal;HPM_P1;HPM_P2
2022/05/04 00:01:11;;;;;;;0.10;0.10;;;;;;;;;;4940032;28;20028;-81
2022/05/04 00:03:39;;;;;;;0.10;0.10;;;;;;;;;;4938643;28;20279;-81
2022/05/04 00:06:08;;;;;;;0.38;0.38;;;;;;;;;;4941025;28;20287;-83
2022/05/04 00:08:35;;;;;;;0.10;0.10;;;;;;;;;;4935997;28;20027;-83
2022/05/04 00:11:01;;;;;;;0.10;0.10;;;;;;;;;;4936113;28;20054;-83
2022/05/04 00:13:27;;;;;;;0.10;0.10;;;;;;;;;;4936641;28;20037;-82
2022/05/04 00:15:53;;;;;;;0.20;0.20;;;;;;;;;;4938652;28;20035;-83
2022/05/04 00:18:20;;;;;;;0.20;0.20;;;;;;;;;;4942520;28;20037;-83
2022/05/04 00:20:46;;;;;;;0.10;0.10;;;;;;;;;;4955675;28;20439;-84
2022/05/04 00:23:12;;;;;;;0.10;0.10;;;;;;;;;;4945721;28;20031;-85
2022/05/04 00:25:38;;;;;;;0.40;0.40;;;;;;;;;;4939077;29;20035;-86
2022/05/04 00:28:05;;;;;;;0.80;0.57;;;;;;;;;;4937896;28;20622;-81
2022/05/04 00:30:31;;;;;;;0.40;0.40;;;;;;;;;;4935527;28;20044;-81
2022/05/04 00:32:57;;;;;;;0.98;0.60;;;;;;;;;;4937136;28;20353;-81
2022/05/04 00:35:23;;;;;;;0.30;0.30;;;;;;;;;;4938201;28;20046;-80
2022/05/04 00:37:49;;;;;;;0.03;0.03;;;;;;;;;;4936127;28;20433;-80
2022/05/04 00:40:16;;;;;;;0.20;0.20;;;;;;;;;;4939608;28;20563;-81
2022/05/04 00:42:42;;;;;;;0.10;0.10;;;;;;;;;;4936291;28;20057;-81
2022/05/04 00:45:08;;;;;;;0.80;0.80;;;;;;;;;;4952536;28;20427;-81
2022/05/04 00:47:34;;;;;;;0.43;0.43;;;;;;;;;;4942739;28;20278;-81
2022/05/04 00:50:06;;;;;;;0.30;0.30;;;;;;;;;;4940705;28;20031;-81
2022/05/04 00:52:36;;;;;;;0.30;0.30;;;;;;;;;;4939427;28;20039;-82
2022/05/04 00:55:03;;;;;;;0.45;0.43;;;;;;;;;;4940050;29;20459;-82
2022/05/04 01:00:15;;;;;;;0.20;0.20;;;;;;;;;;4940113;28;20107;-82
2022/05/04 01:02:41;;;;;;;0.05;0.05;;;;;;;;;;4947825;28;20031;-81
2022/05/04 01:05:10;;;;;;;0.00;0.00;;;;;;;;;;4944364;28;20035;-83
2022/05/04 01:07:37;;;;;;;0.28;0.28;;;;;;;;;;4939423;29;20125;-81
2022/05/04 01:10:04;;;;;;;0.88;0.85;;;;;;;;;;4936450;28;20043;-81
2022/05/04 01:12:30;;;;;;;0.43;0.43;;;;;;;;;;4936066;28;20126;-80
2022/05/04 01:14:56;;;;;;;0.10;0.10;;;;;;;;;;4945520;28;20602;-80
2022/05/04 01:17:22;;;;;;;0.10;0.10;;;;;;;;;;4941828;28;20543;-82
2022/05/04 01:19:48;;;;;;;2.13;0.37;;;;;;;;;;4943437;28;20027;-82
2022/05/04 01:22:14;;;;;;;0.07;0.07;;;;;;;;;;4948497;28;20105;-82
2022/05/04 01:24:40;;;;;;;0.30;0.30;;;;;;;;;;4940865;28;20042;-83
2022/05/04 01:27:12;;;;;;;0.87;0.87;;;;;;;;;;4948076;28;20500;-83
2022/05/04 01:29:39;;;;;;;0.20;0.20;;;;;;;;;;4946056;28;20050;-82
2022/05/04 01:32:05;;;;;;;0.20;0.20;;;;;;;;;;4946605;28;20030;-80
2022/05/04 01:34:31;;;;;;;0.20;0.20;;;;;;;;;;4938792;28;20035;-80
2022/05/04 01:36:57;;;;;;;1.20;0.20;;;;;;;;;;4944114;28;20035;-81
2022/05/04 01:39:23;;;;;;;1.70;0.87;;;;;;;;;;4940993;28;20517;-80
2022/05/04 01:42:05;;;;;;;0.30;0.20;;;;;;;;;;4942004;29;20122;-81
2022/05/04 01:44:32;;;;;;;0.03;0.03;;;;;;;;;;4938509;28;20031;-80
2022/05/04 01:46:58;;;;;;;2.17;0.30;;;;;;;;;;4949455;28;20038;-80
2022/05/04 01:49:24;;;;;;;0.10;0.10;;;;;;;;;;4948930;28;20126;-80
2022/05/04 01:51:50;;;;;;;0.40;0.40;;;;;;;;;;4959806;28;20290;-80
2022/05/04 01:54:16;;;;;;;0.40;0.40;;;;;;;;;;4945555;28;20038;-77
2022/05/04 01:56:42;;;;;;;0.30;0.30;;;;;;;;;;4944436;28;20038;-78
2022/05/04 01:59:08;;;;;;;0.13;0.13;;;;;;;;;;4936834;29;20515;-78
2022/05/04 02:01:35;;;;;;;0.13;0.13;;;;;;;;;;4938456;28;20287;-78
2022/05/04 02:04:01;;;;;;;0.43;0.43;;;;;;;;;;4938291;28;20043;-78
2022/05/04 02:06:27;;;;;;;0.50;0.50;;;;;;;;;;4941560;28;20594;-78
2022/05/04 02:11:39;;;;;;;0.47;0.47;;;;;;;;;;4940379;28;20075;-79
2022/05/04 02:14:06;;;;;;;0.60;0.60;;;;;;;;;;4936605;28;20279;-79
2022/05/04 02:16:32;;;;;;;;;;;;;;;;;;4940381;28;20023;-78
2022/05/04 02:18:58;;;;;;;0.10;0.10;;;;;;;;;;4939034;28;19977;-79
2022/05/04 02:21:24;;;;;;;0.20;0.20;;;;;;;;;;4940116;28;20515;-83
2022/05/04 02:23:50;;;;;;;0.15;0.15;;;;;;;;;;4938523;28;20035;-80
2022/05/04 02:26:18;;;;;;;0.10;0.10;;;;;;;;;;4941713;28;20062;-80
2022/05/04 02:28:44;;;;;;;0.10;0.10;;;;;;;;;;4933516;28;20023;-78
2022/05/04 02:31:10;;;;;;;;;;;;;;;;;;4938758;28;20123;-79
2022/05/04 02:33:37;;;;;;;0.20;0.20;;;;;;;;;;4944091;28;19914;-78
2022/05/04 02:38:48;;;;;;;0.20;0.20;;;;;;;;;;4940155;28;20062;-77
2022/05/04 02:41:14;;;;;;;0.10;0.10;;;;;;;;;;4947355;28;20035;-77
2022/05/04 02:43:40;;;;;;;0.35;0.35;;;;;;;;;;4942378;28;20279;-77
2022/05/04 02:46:14;;;;;;;0.30;0.30;;;;;;;;;;4945400;28;20039;-77
2022/05/04 02:48:40;;;;;;;4.15;0.40;;;;;;;;;;4940965;28;20408;-76
2022/05/04 02:51:06;;;;;;;0.40;0.40;;;;;;;;;;4942485;28;20142;-82
2022/05/04 02:53:32;;;;;;;0.10;0.10;;;;;;;;;;4944009;29;20038;-82
2022/05/04 02:55:58;;;;;;;0.63;0.63;;;;;;;;;;4944670;29;20035;-79
2022/05/04 02:58:24;;;;;;;0.10;0.10;;;;;;;;;;4943012;28;20526;-80
2022/05/04 03:00:50;;;;;;;0.90;0.43;;;;;;;;;;4938533;28;20034;-79
2022/05/04 03:03:16;;;;;;;0.10;0.10;;;;;;;;;;4936877;28;20121;-80
2022/05/04 03:05:42;;;;;;;0.03;0.03;;;;;;;;;;4937154;28;20035;-77
2022/05/04 03:08:09;;;;;;;0.23;0.20;;;;;;;;;;4945120;28;20030;-77
2022/05/04 03:11:54;;;;;;;0.13;0.13;;;;;;;;;;4945324;28;20040;-79
2022/05/04 03:13:22;;;;;;;0.10;0.10;;;;;;;;;;4937800;28;20082;-78
2022/05/04 03:15:48;;;;;;;0.20;0.20;;;;;;;;;;4943588;28;20035;-78
2022/05/04 03:18:14;;;;;;;0.30;0.30;;;;;;;;;;4941490;29;20043;-78
2022/05/04 03:20:40;;;;;;;0.57;0.43;;;;;;;;;;4944322;28;20039;-77
2022/05/04 03:23:06;;;;;;;0.47;0.47;;;;;;;;;;4941987;28;20090;-77
2022/05/04 03:25:32;;;;;;;0.23;0.23;;;;;;;;;;4937275;28;20035;-76
2022/05/04 03:27:58;;;;;;;0.10;0.10;;;;;;;;;;4938757;28;20031;-77
2022/05/04 03:30:24;;;;;;;0.47;0.30;;;;;;;;;;4937782;28;20149;-76
2022/05/04 03:32:50;;;;;;;0.20;0.20;;;;;;;;;;4939512;28;20098;-79
2022/05/04 03:35:17;;;;;;;0.67;0.67;;;;;;;;;;4939629;28;20068;-78
2022/05/04 03:37:43;;;;;;;0.28;0.28;;;;;;;;;;4936314;28;20027;-78
2022/05/04 03:40:10;;;;;;;0.73;0.73;;;;;;;;;;4942286;28;20043;-79
2022/05/04 03:42:36;;;;;;;0.10;0.10;;;;;;;;;;4948510;28;20077;-81
2022/05/04 03:45:02;;;;;;;0.23;0.23;;;;;;;;;;4942501;28;21009;-80
2022/05/04 03:47:28;;;;;;;0.13;0.13;;;;;;;;;;4941788;28;20767;-82
2022/05/04 03:49:54;;;;;;;0.73;0.63;;;;;;;;;;4938051;28;20047;-82
2022/05/04 03:52:21;;;;;;;0.32;0.32;;;;;;;;;;4940880;28;20405;-82
2022/05/04 03:54:47;;;;;;;0.15;0.15;;;;;;;;;;4938416;29;21053;-82
2022/05/04 03:57:13;;;;;;;0.20;0.20;;;;;;;;;;4939536;28;20050;-83
2022/05/04 03:59:39;;;;;;;0.10;0.10;;;;;;;;;;4951905;28;20494;-81
2022/05/04 04:02:05;;;;;;;0.10;0.10;;;;;;;;;;4938041;28;20027;-81
2022/05/04 04:04:31;;;;;;;0.00;0.00;;;;;;;;;;4939051;29;20035;-80
2022/05/04 04:06:57;;;;;;;2.27;0.63;;;;;;;;;;4938803;28;20067;-79
2022/05/04 04:09:23;;;;;;;0.23;0.23;;;;;;;;;;4939958;28;20179;-79
2022/05/04 04:11:49;;;;;;;0.50;0.50;;;;;;;;;;4943749;29;20610;-79
2022/05/04 04:14:15;;;;;;;0.15;0.15;;;;;;;;;;4940742;28;20279;-79
2022/05/04 04:16:41;;;;;;;0.30;0.30;;;;;;;;;;4941129;28;20031;-79
2022/05/04 04:19:09;;;;;;;0.32;0.32;;;;;;;;;;4936447;28;20042;-79
2022/05/04 04:21:50;;;;;;;0.82;0.77;;;;;;;;;;4943009;29;20904;-79
2022/05/04 04:24:16;;;;;;;1.27;0.52;;;;;;;;;;4936073;28;20039;-79
2022/05/04 04:26:42;;;;;;;0.33;0.33;;;;;;;;;;4938218;28;20058;-79
2022/05/04 04:29:08;;;;;;;0.10;0.10;;;;;;;;;;4934364;28;20054;-82
2022/05/04 04:31:34;;;;;;;0.43;0.43;;;;;;;;;;4940381;29;20039;-81
2022/05/04 04:34:04;;;;;;;2.23;0.87;;;;;;;;;;4942870;28;20027;-81
2022/05/04 04:36:30;;;;;;;0.60;0.60;;;;;;;;;;4936321;28;20125;-81
2022/05/04 04:38:56;;;;;;;0.10;0.10;;;;;;;;;;4936390;28;20063;-81
2022/05/04 04:41:22;;;;;;;0.43;0.40;;;;;;;;;;4944137;28;20518;-81
2022/05/04 04:43:48;;;;;;;0.40;0.40;;;;;;;;;;4937506;29;20027;-82
2022/05/04 04:46:14;;;;;;;0.27;0.27;;;;;;;;;;4939387;29;20043;-86
2022/05/04 04:48:40;;;;;;;0.30;0.30;;;;;;;;;;4938231;29;20039;-84
2022/05/04 04:51:06;;;;;;;0.10;0.10;;;;;;;;;;4945433;28;20055;-84
2022/05/04 04:53:33;;;;;;;0.40;0.40;;;;;;;;;;4942660;28;20035;-82
2022/05/04 04:55:59;;;;;;;0.08;0.08;;;;;;;;;;4943159;28;20897;-83
2022/05/04 04:58:25;;;;;;;0.83;0.50;;;;;;;;;;4943814;28;20086;-85
2022/05/04 05:00:51;;;;;;;0.20;0.20;;;;;;;;;;4948359;28;20282;-82
2022/05/04 05:03:18;;;;;;;0.10;0.10;;;;;;;;;;4943451;28;20764;-82
2022/05/04 05:05:44;;;;;;;1.30;0.45;;;;;;;;;;4945554;28;20035;-82
2022/05/04 05:08:11;;;;;;;0.20;0.20;;;;;;;;;;4940287;28;20042;-86
2022/05/04 05:10:38;;;;;;;0.10;0.10;;;;;;;;;;4938519;29;20050;-84
2022/05/04 05:13:04;;;;;;;0.15;0.15;;;;;;;;;;4942307;28;20039;-91
2022/05/04 05:18:15;;;;;;;0.25;0.15;;;;;;;;;;4944690;28;20370;-87
2022/05/04 05:20:41;;;;;;;0.40;0.27;;;;;;;;;;4943557;29;20081;-88
2022/05/04 05:23:08;;;;;;;0.10;0.10;;;;;;;;;;4939164;28;20717;-88
2022/05/04 05:25:34;;;;;;;0.20;0.20;;;;;;;;;;4934247;28;20396;-86
2022/05/04 05:28:00;;;;;;;0.10;0.10;;;;;;;;;;4937373;28;21095;-86
2022/05/04 05:30:26;;;;;;;0.10;0.10;;;;;;;;;;4938616;28;20039;-81
2022/05/04 05:32:53;;;;;;;0.20;0.13;;;;;;;;;;4937163;28;20062;-81
2022/05/04 05:35:21;;;;;;;0.50;0.50;;;;;;;;;;4933536;28;20294;-79
2022/05/04 05:37:47;;;;;;;0.40;0.40;;;;;;;;;;4941477;28;20116;-79
2022/05/04 05:40:13;;;;;;;0.10;0.10;;;;;;;;;;4941112;28;20118;-79
2022/05/04 05:42:39;;;;;;;0.10;0.10;;;;;;;;;;4938761;29;20035;-79
2022/05/04 05:45:06;;;;;;;0.20;0.20;;;;;;;;;;4940242;29;20438;-79
2022/05/04 05:47:32;;;;;;;0.75;0.75;;;;;;;;;;4936487;29;20295;-77
2022/05/04 05:49:58;;;;;;;0.10;0.10;;;;;;;;;;4940743;28;20185;-78
2022/05/04 05:52:24;;;;;;;1.27;0.45;;;;;;;;;;4946419;28;20507;-79
2022/05/04 05:54:51;;;;;;;0.22;0.22;;;;;;;;;;4946911;28;20759;-78
2022/05/04 05:57:17;;;;;;;0.13;0.13;;;;;;;;;;4948051;28;20031;-79
2022/05/04 05:59:43;;;;;;;0.13;0.13;;;;;;;;;;4946424;28;20036;-78
2022/05/04 06:02:09;;;;;;;0.10;0.10;;;;;;;;;;4944753;28;20042;-78
2022/05/04 06:04:35;;;;;;;0.10;0.10;;;;;;;;;;4942913;28;20764;-78
2022/05/04 06:07:01;;;;;;;0.23;0.23;;;;;;;;;;4949557;28;20067;-78
2022/05/04 06:09:28;;;;;;;0.20;0.20;;;;;;;;;;4949674;28;20299;-77
2022/05/04 06:11:54;;;;;;;1.13;0.65;;;;;;;;;;4945634;28;20761;-80
2022/05/04 06:14:20;;;;;;;0.30;0.30;;;;;;;;;;4948568;28;20493;-79
2022/05/04 06:16:49;;;;;;;0.52;0.30;;;;;;;;;;4945493;28;20358;-85
2022/05/04 06:19:15;;;;;;;0.35;0.35;;;;;;;;;;4950709;28;20046;-84
2022/05/04 06:21:41;;;;;;;0.30;0.30;;;;;;;;;;4949278;28;20035;-79
2022/05/04 06:24:08;;;;;;;1.13;1.07;;;;;;;;;;4947172;28;20054;-79
2022/05/04 06:26:34;;;;;;;0.10;0.10;;;;;;;;;;4958502;28;20224;-78
2022/05/04 06:29:00;;;;;;;0.17;0.17;;;;;;;;;;4946934;28;20027;-78
2022/05/04 06:34:13;;;;;;;0.10;0.10;;;;;;;;;;4960130;28;21126;-85
2022/05/04 06:36:40;;;;;;;0.10;0.10;;;;;;;;;;4951305;28;20086;-84
2022/05/04 06:39:07;;;;;;;1.25;0.20;;;;;;;;;;4958680;28;20131;-85
2022/05/04 06:41:33;;;;;;;;;;;;;;;;;;4959984;28;20597;-85
2022/05/04 06:43:59;;;;;;;0.10;0.10;;;;;;;;;;4949570;28;19914;-84
2022/05/04 06:46:25;;;;;;;0.10;0.10;;;;;;;;;;4950486;28;20035;-86
2022/05/04 06:48:51;;;;;;;0.55;0.38;;;;;;;;;;4946070;28;20038;-82
2022/05/04 06:51:17;;;;;;;0.10;0.10;;;;;;;;;;4950804;28;20047;-82
2022/05/04 06:53:43;;;;;;;0.90;0.60;;;;;;;;;;4951043;28;20110;-82
2022/05/04 06:56:10;;;;;;;0.30;0.30;;;;;;;;;;4953684;28;20068;-77
2022/05/04 06:58:36;;;;;;;;;;;;;;;;;;4948164;28;20027;-77
2022/05/04 07:01:05;;;;;;;0.17;0.17;;;;;;;;;;4952328;28;19957;-77
2022/05/04 07:03:31;;;;;;;0.45;0.45;;;;;;;;;;4951937;28;20434;-77
2022/05/04 07:05:57;;;;;;;1.10;0.20;;;;;;;;;;4952503;28;20058;-77
2022/05/04 07:08:23;;;;;;;;;;;;;;;;;;4953090;28;20495;-77
2022/05/04 07:10:50;;;;;;;0.20;0.20;;;;;;;;;;4962473;28;19926;-78
2022/05/04 07:13:17;;;;;;;0.20;0.20;;;;;;;;;;4962681;28;20022;-77
2022/05/04 07:15:43;;;;;;;;;;;;;;;;;;4952988;28;20035;-77
2022/05/04 07:18:09;;;;;;;0.22;0.22;;;;;;;;;;4951042;28;19922;-77
2022/05/04 07:20:35;;;;;;;0.13;0.13;;;;;;;;;;4951508;28;20045;-77
2022/05/04 07:23:01;;;;;;;0.10;0.10;;;;;;;;;;4949860;28;20290;-77
2022/05/04 07:25:27;;;;;;;0.20;0.20;;;;;;;;;;4965251;28;20038;-77
2022/05/04 07:27:53;;;;;;;0.32;0.32;;;;;;;;;;4951341;28;20629;-78
2022/05/04 07:30:20;;;;;;;0.20;0.20;;;;;;;;;;4944597;29;21051;-77
2022/05/04 07:32:46;;;;;;;0.20;0.20;;;;;;;;;;4946076;28;20495;-77
2022/05/04 07:35:12;;;;;;;0.40;0.40;;;;;;;;;;4946137;29;20502;-78
2022/05/04 07:37:40;;;;;;;0.10;0.10;;;;;;;;;;4944566;29;20458;-78
2022/05/04 07:42:52;;;;;;;0.20;0.20;;;;;;;;;;4946453;29;20042;-77
2022/05/04 07:45:18;;;;;;;0.73;0.73;;;;;;;;;;4943313;29;20694;-78
2022/05/04 07:47:44;;;;;;;0.00;0.00;;;;;;;;;;4945819;29;20027;-78
2022/05/04 07:50:11;;;;;;;0.00;0.00;;;;;;;;;;4946454;28;20051;-78
2022/05/04 07:52:38;;;;;;;0.10;0.10;;;;;;;;;;4945695;28;20043;-78
2022/05/04 07:55:04;;;;;;;0.17;0.17;;;;;;;;;;4946651;28;20035;-78
2022/05/04 07:57:30;;;;;;;0.05;0.05;;;;;;;;;;4946596;28;20181;-77
2022/05/04 08:05:31;;;;;;;0.08;0.08;;;;;;;;;;4945530;29;20471;-77
2022/05/04 08:07:57;;;;;;;0.20;0.20;;;;;;;;;;4945745;29;20031;-77
2022/05/04 08:10:24;;;;;;;0.10;0.10;;;;;;;;;;4945812;28;20302;-78
2022/05/04 08:12:50;;;;;;;0.10;0.10;;;;;;;;;;4946108;28;20263;-77
2022/05/04 08:15:16;;;;;;;1.38;0.63;;;;;;;;;;4945440;29;20082;-78
2022/05/04 08:17:42;;;;;;;0.20;0.10;;;;;;;;;;4944379;29;20105;-77
2022/05/04 08:20:09;;;;;;;0.15;0.15;;;;;;;;;;4945662;28;20035;-78
2022/05/04 08:22:35;;;;;;;0.10;0.10;;;;;;;;;;4945451;28;20039;-77
2022/05/04 08:25:01;;;;;;;0.20;0.20;;;;;;;;;;4945644;29;20499;-78
2022/05/04 08:27:28;;;;;;;0.05;0.05;;;;;;;;;;4945242;29;20122;-78
2022/05/04 08:29:54;;;;;;;0.20;0.20;;;;;;;;;;4944144;28;20082;-78
2022/05/04 08:32:20;;;;;;;0.45;0.45;;;;;;;;;;4945717;28;20165;-82
2022/05/04 08:34:46;;;;;;;0.98;0.65;;;;;;;;;;4945024;29;20058;-81
2022/05/04 08:37:12;;;;;;;0.88;0.63;;;;;;;;;;4945770;28;20488;-81
2022/05/04 08:39:38;;;;;;;0.55;0.55;;;;;;;;;;4944841;28;20039;-82
2022/05/04 08:42:05;;;;;;;0.05;0.05;;;;;;;;;;4944709;28;20035;-81
2022/05/04 08:44:32;;;;;;;0.13;0.13;;;;;;;;;;4944882;29;20038;-81
2022/05/04 08:46:59;;;;;;;0.20;0.20;;;;;;;;;;4945441;29;20031;-82
2022/05/04 08:49:29;;;;;;;0.30;0.30;;;;;;;;;;4945090;28;20042;-81
2022/05/04 08:51:55;;;;;;;0.13;0.13;;;;;;;;;;4943462;29;20511;-81
2022/05/04 08:54:21;;;;;;;0.30;0.30;;;;;;;;;;4944639;28;20037;-81
2022/05/04 08:56:47;;;;;;;0.32;0.32;;;;;;;;;;4945291;28;20043;-81
2022/05/04 08:59:14;;;;;;;0.20;0.20;;;;;;;;;;4945178;28;20042;-81
2022/05/04 09:01:40;;;;;;;0.22;0.13;;;;;;;;;;4945292;28;20071;-81
2022/05/04 09:04:07;;;;;;;0.00;0.00;;;;;;;;;;4946104;28;20046;-81
2022/05/04 09:06:37;;;;;;;0.15;0.15;;;;;;;;;;4944953;29;20055;-82
2022/05/04 09:09:13;;;;;;;0.20;0.10;;;;;;;;;;4944745;29;20035;-81
2022/05/04 09:11:40;;;;;;;0.03;0.03;;;;;;;;;;4944800;29;20035;-82
2022/05/04 09:14:20;;;;;;;0.10;0.10;;;;;;;;;;4945375;28;20415;-82
2022/05/04 09:16:46;;;;;;;0.08;0.08;;;;;;;;;;4929844;29;20395;-82
2022/05/04 09:19:13;;;;;;;0.10;0.10;;;;;;;;;;4945257;28;20036;-82
2022/05/04 09:21:40;;;;;;;1.95;0.25;;;;;;;;;;4944906;29;20063;-82
2022/05/04 09:24:06;;;;;;;1.13;0.73;;;;;;;;;;4944551;28;20069;-82
2022/05/04 09:26:32;;;;;;;;;;;;;;;;;;4945193;29;20034;-83
2022/05/04 09:28:59;;;;;;;0.30;0.30;;;;;;;;;;4944949;28;19914;-82
2022/05/04 09:31:26;;;;;;;0.00;0.00;;;;;;;;;;4944981;28;20036;-81
2022/05/04 09:33:53;;;;;;;0.10;0.10;;;;;;;;;;4945510;29;20713;-82
2022/05/04 09:36:30;;;;;;;0.10;0.10;;;;;;;;;;4944520;28;20511;-81
2022/05/04 09:45:16;;;;;;;0.00;0.00;;;;;;;;;;4948376;29;20042;-82
2022/05/04 09:47:46;;;;;;;0.35;0.20;;;;;;;;;;4947979;28;20033;-82
2022/05/04 09:50:13;;;;;;;0.10;0.10;;;;;;;;;;4948154;28;20043;-82
2022/05/04 09:52:44;;;;;;;0.20;0.20;;;;;;;;;;4947890;28;20043;-82
2022/05/04 09:55:18;;;;;;;0.20;0.20;;;;;;;;;;4948558;28;20110;-82
2022/05/04 09:57:45;;;;;;;0.00;0.00;;;;;;;;;;4948063;29;20035;-82
2022/05/04 10:00:13;;;;;;;0.00;0.00;;;;;;;;;;4948137;28;20122;-82
2022/05/04 10:02:39;;;;;;;0.20;0.17;;;;;;;;;;4947859;28;20070;-82
2022/05/04 10:05:05;;;;;;;;;;;;;;;;;;4948351;29;20539;-82
2022/05/04 10:07:32;;;;;;;0.82;0.57;;;;;;;;;;4947677;28;20375;-82
2022/05/04 10:09:58;;;;;;;;;;;;;;;;;;4949017;28;20043;-82
2022/05/04 10:12:23;;;;;;;;;;;;;;;;;;4948301;28;19914;-82
2022/05/04 10:14:50;;;;;;;0.05;0.05;;;;;;;;;;4946482;29;20386;-82
2022/05/04 10:17:22;;;;;;;0.22;0.22;;;;;;;;;;4947919;28;20094;-81
2022/05/04 10:19:51;;;;;;;1.55;0.88;;;;;;;;;;4932715;29;20090;-82
2022/05/04 10:22:21;;;;;;;0.10;0.10;;;;;;;;;;4947871;28;20131;-82
2022/05/04 10:24:48;;;;;;;0.20;0.20;;;;;;;;;;4947803;29;20023;-82
2022/05/04 10:27:18;;;;;;;0.30;0.28;;;;;;;;;;4947941;28;20051;-82
2022/05/04 10:32:34;;;;;;;0.85;0.22;;;;;;;;;;4947691;29;20101;-81
2022/05/04 10:35:10;;;;;;;0.60;0.60;;;;;;;;;;4946769;28;20861;-81
2022/05/04 10:37:51;;;;;;;4.47;0.30;;;;;;;;;;4946066;29;20035;-82
2022/05/04 10:40:22;;;;;;;1.27;0.85;;;;;;;;;;4941399;29;20039;-81
2022/05/04 10:42:55;;;;;;;1.08;0.28;;;;;;;;;;4947367;29;20625;-81
2022/05/04 10:45:23;;;;;;;2.55;0.65;;;;;;;;;;4946560;28;20031;-82
2022/05/04 10:47:49;;;;;;;0.35;0.30;;;;;;;;;;4946829;28;20023;-82
2022/05/04 10:50:18;;;;;;;0.50;0.50;;;;;;;;;;4946408;29;20051;-82
2022/05/04 10:52:47;;;;;;;0.60;0.55;;;;;;;;;;4936687;28;20709;-81
2022/05/04 10:55:14;;;;;;;0.10;0.10;;;;;;;;;;4946197;28;20032;-83
2022/05/04 10:57:43;;;;;;;0.47;0.47;;;;;;;;;;4946052;29;20030;-82
2022/05/04 11:00:10;;;;;;;0.50;0.50;;;;;;;;;;4946551;28;20062;-82
2022/05/04 11:02:36;;;;;;;0.88;0.43;;;;;;;;;;4945665;28;20039;-82
2022/05/04 11:05:11;;;;;;;0.32;0.32;;;;;;;;;;4945993;28;20035;-81
2022/05/04 11:07:38;;;;;;;0.30;0.30;;;;;;;;;;4945678;28;20042;-81
2022/05/04 11:10:04;;;;;;;0.65;0.65;;;;;;;;;;4944780;28;20106;-81
2022/05/04 11:12:30;;;;;;;0.22;0.20;;;;;;;;;;4943376;29;20035;-82
2022/05/04 11:14:56;;;;;;;1.13;1.05;;;;;;;;;;4943132;29;20023;-82
2022/05/04 11:17:22;;;;;;;1.20;0.82;;;;;;;;;;4943890;28;20495;-82
2022/05/04 11:19:49;;;;;;;0.40;0.40;;;;;;;;;;4944883;28;20459;-81
2022/05/04 11:22:16;;;;;;;0.63;0.60;;;;;;;;;;4947304;28;20043;-82
2022/05/04 11:24:43;;;;;;;2.15;0.75;;;;;;;;;;4945163;29;20027;-79
2022/05/04 11:27:11;;;;;;;0.77;0.77;;;;;;;;;;4944694;29;20446;-81
2022/05/04 11:29:38;;;;;;;1.17;1.02;;;;;;;;;;4944959;29;20035;-80
2022/05/04 11:32:05;;;;;;;0.68;0.63;;;;;;;;;;4945287;28;20058;-80
2022/05/04 11:34:31;;;;;;;0.40;0.40;;;;;;;;;;4944552;29;20031;-80
2022/05/04 11:36:58;;;;;;;0.20;0.20;;;;;;;;;;4946314;28;20122;-82
2022/05/04 11:39:25;;;;;;;2.40;0.80;;;;;;;;;;4944823;28;20031;-81
2022/05/04 11:41:53;;;;;;;21.25;2.40;;;;;;;;;;4944964;28;20031;-81
2022/05/04 11:44:21;;;;;;;1.30;0.63;;;;;;;;;;4944506;28;20042;-81
2022/05/04 11:46:48;;;;;;;0.20;0.20;;;;;;;;;;4943823;28;20066;-81
2022/05/04 11:49:15;;;;;;;0.50;0.50;;;;;;;;;;4945247;29;20027;-82
2022/05/04 11:51:42;;;;;;;0.40;0.40;;;;;;;;;;4943711;29;20078;-81
2022/05/04 11:54:08;;;;;;;0.70;0.65;;;;;;;;;;4945610;29;20094;-81
2022/05/04 11:56:34;;;;;;;0.40;0.40;;;;;;;;;;4944588;29;20463;-81
2022/05/04 11:59:00;;;;;;;0.52;0.52;;;;;;;;;;4943264;29;20027;-81
2022/05/04 12:01:26;;;;;;;0.38;0.38;;;;;;;;;;4942932;29;20027;-81
2022/05/04 12:03:53;;;;;;;0.77;0.43;;;;;;;;;;4944982;28;20085;-81
2022/05/04 12:06:18;;;;;;;;;;;;;;;;;;4944937;28;20034;-81
2022/05/04 12:08:45;;;;;;;1.38;0.65;;;;;;;;;;4944639;28;19914;-81
2022/05/04 12:11:11;;;;;;;;;;;;;;;;;;4942727;29;20071;-81
2022/05/04 12:13:38;;;;;;;0.17;0.17;;;;;;;;;;4944546;29;19972;-81
2022/05/04 12:16:05;;;;;;;0.25;0.25;;;;;;;;;;4943668;29;20575;-81
2022/05/04 12:18:32;;;;;;;;;;;;;;;;;;4945063;28;20087;-81
2022/05/04 12:21:03;;;;;;;0.70;0.55;;;;;;;;;;4944258;28;20546;-82
2022/05/04 12:23:30;;;;;;;1.02;0.63;;;;;;;;;;4944299;28;20058;-82
2022/05/04 12:25:56;;;;;;;1.20;1.17;;;;;;;;;;4944355;28;20085;-81
2022/05/04 12:28:22;;;;;;;0.65;0.65;;;;;;;;;;4944233;29;20034;-81
2022/05/04 12:33:34;;;;;;;0.40;0.40;;;;;;;;;;4944545;29;20038;-78
2022/05/04 12:36:05;;;;;;;0.57;0.57;;;;;;;;;;4944030;28;20035;-78
2022/05/04 12:38:32;;;;;;;0.55;0.40;;;;;;;;;;4944135;28;20738;-78
2022/05/04 12:40:58;;;;;;;0.13;0.13;;;;;;;;;;4943946;28;20038;-78
2022/05/04 12:43:24;;;;;;;0.52;0.43;;;;;;;;;;4944093;29;20031;-78
2022/05/04 12:45:50;;;;;;;;;;;;;;;;;;4944922;28;20101;-78
2022/05/04 12:48:21;;;;;;;1.65;1.20;;;;;;;;;;4942559;29;19914;-78
2022/05/04 12:50:48;;;;;;;1.10;0.70;;;;;;;;;;4943243;28;20639;-78
2022/05/04 12:53:16;;;;;;;1.45;0.35;;;;;;;;;;4944080;28;20027;-78
2022/05/04 12:58:27;;;;;;;0.60;0.60;;;;;;;;;;4944151;29;20082;-78
2022/05/04 13:00:53;;;;;;;2.05;1.27;;;;;;;;;;4944268;29;20027;-78
2022/05/04 13:03:19;;;;;;;0.55;0.55;;;;;;;;;;4944534;29;20031;-78
2022/05/04 13:05:45;;;;;;;0.77;0.28;;;;;;;;;;4944899;29;20418;-79
2022/05/04 13:08:11;;;;;;;0.15;0.08;;;;;;;;;;4944620;28;20736;-78
2022/05/04 13:10:37;;;;;;;0.35;0.35;;;;;;;;;;4943653;29;20058;-78
2022/05/04 13:13:04;;;;;;;0.38;0.38;;;;;;;;;;4944212;28;20050;-78
2022/05/04 13:15:31;;;;;;;1.35;0.55;;;;;;;;;;4943806;28;20035;-78
2022/05/04 13:17:57;;;;;;;0.30;0.30;;;;;;;;;;4949739;28;20054;-78
2022/05/04 13:20:23;;;;;;;0.25;0.25;;;;;;;;;;4951065;28;20693;-78
2022/05/04 13:22:49;;;;;;;0.38;0.38;;;;;;;;;;4951014;28;20451;-78
2022/05/04 13:25:16;;;;;;;0.50;0.30;;;;;;;;;;4951552;28;20154;-78
2022/05/04 13:27:43;;;;;;;0.30;0.30;;;;;;;;;;4950570;28;20046;-78
2022/05/04 13:30:10;;;;;;;0.22;0.13;;;;;;;;;;4950362;28;20079;-79
2022/05/04 13:32:36;;;;;;;1.20;0.77;;;;;;;;;;4949487;29;20414;-78
2022/05/04 13:35:02;;;;;;;0.13;0.13;;;;;;;;;;4950948;29;20051;-79
2022/05/04 13:37:28;;;;;;;0.30;0.30;;;;;;;;;;4950662;28;20035;-78
2022/05/04 13:39:54;;;;;;;0.25;0.25;;;;;;;;;;4949782;29;20439;-79
2022/05/04 13:42:20;;;;;;;0.45;0.45;;;;;;;;;;4933238;29;20816;-78
2022/05/04 13:44:46;;;;;;;0.20;0.10;;;;;;;;;;4950651;28;20031;-78
2022/05/04 13:47:12;;;;;;;0.52;0.22;;;;;;;;;;4950799;28;20406;-78
2022/05/04 13:49:39;;;;;;;0.30;0.30;;;;;;;;;;4950472;28;20039;-78
2022/05/04 13:54:49;;;;;;;0.35;0.30;;;;;;;;;;4949760;29;19936;-78
2022/05/04 13:57:16;;;;;;;0.20;0.20;;;;;;;;;;4950283;28;20055;-78
2022/05/04 13:59:42;;;;;;;0.65;0.65;;;;;;;;;;4949756;28;20039;-78
2022/05/04 14:02:08;;;;;;;0.93;0.30;;;;;;;;;;4950230;28;20470;-78
2022/05/04 14:04:34;;;;;;;1.02;0.40;;;;;;;;;;4949498;28;20035;-78
2022/05/04 14:07:00;;;;;;;0.20;0.20;;;;;;;;;;4951165;28;20055;-78
2022/05/04 14:09:27;;;;;;;0.08;0.08;;;;;;;;;;4949972;29;20528;-79
2022/05/04 14:11:53;;;;;;;0.28;0.28;;;;;;;;;;4950201;28;20039;-79
2022/05/04 14:17:04;;;;;;;0.25;0.25;;;;;;;;;;4948584;28;20046;-78
2022/05/04 14:19:30;;;;;;;0.20;0.20;;;;;;;;;;4950022;28;20023;-79
2022/05/04 14:21:56;;;;;;;0.70;0.10;;;;;;;;;;4948661;29;20043;-79
2022/05/04 14:24:22;;;;;;;0.30;0.30;;;;;;;;;;4950119;29;20031;-79
2022/05/04 14:26:51;;;;;;;0.00;0.00;;;;;;;;;;4949807;28;20781;-78
2022/05/04 14:29:19;;;;;;;0.20;0.20;;;;;;;;;;4947438;28;20039;-78
2022/05/04 14:31:45;;;;;;;0.10;0.10;;;;;;;;;;4947004;29;20503;-78
2022/05/04 14:34:11;;;;;;;0.60;0.60;;;;;;;;;;4944800;29;20035;-78
2022/05/04 14:36:37;;;;;;;0.28;0.28;;;;;;;;;;4944400;29;20514;-78
2022/05/04 14:39:03;;;;;;;0.35;0.28;;;;;;;;;;4946944;28;20938;-78
2022/05/04 14:41:29;;;;;;;0.10;0.10;;;;;;;;;;4945757;28;20043;-78
2022/05/04 14:43:55;;;;;;;0.10;0.10;;;;;;;;;;4947229;28;20059;-79
2022/05/04 14:46:22;;;;;;;0.30;0.20;;;;;;;;;;4945696;29;20062;-80
2022/05/04 14:48:48;;;;;;;0.45;0.45;;;;;;;;;;4946430;28;20114;-79
2022/05/04 14:51:14;;;;;;;0.15;0.15;;;;;;;;;;4945796;28;20059;-80
2022/05/04 14:53:45;;;;;;;0.15;0.10;;;;;;;;;;4944660;29;20106;-78
2022/05/04 14:56:11;;;;;;;0.10;0.10;;;;;;;;;;4946953;28;20592;-79
2022/05/04 14:58:37;;;;;;;0.15;0.15;;;;;;;;;;4947401;28;20032;-79
2022/05/04 15:01:03;;;;;;;0.10;0.10;;;;;;;;;;4947222;28;20027;-81
2022/05/04 15:06:13;;;;;;;0.13;0.13;;;;;;;;;;4945025;28;20098;-84
2022/05/04 15:08:39;;;;;;;0.88;0.10;;;;;;;;;;4940251;29;20031;-82
2022/05/04 15:11:06;;;;;;;0.05;0.05;;;;;;;;;;4945760;28;20047;-83
2022/05/04 15:13:32;;;;;;;0.85;0.52;;;;;;;;;;4943906;28;20027;-84
2022/05/04 15:15:58;;;;;;;0.20;0.20;;;;;;;;;;4949516;28;20039;-82
2022/05/04 15:18:25;;;;;;;0.00;0.00;;;;;;;;;;4945341;28;20043;-82
2022/05/04 15:20:51;;;;;;;;;;;;;;;;;;4949415;28;20030;-82
2022/05/04 15:23:17;;;;;;;0.03;0.03;;;;;;;;;;4947933;28;19918;-81
2022/05/04 15:25:43;;;;;;;1.08;0.40;;;;;;;;;;4947486;28;20043;-81
2022/05/04 15:28:09;;;;;;;0.20;0.15;;;;;;;;;;4950512;28;20054;-81
2022/05/04 15:30:35;;;;;;;0.35;0.20;;;;;;;;;;4949863;28;20499;-81